Time;durP1;ratioP1;P1;durP2;ratioP2;P2;SDS_P1;SDS_P2;PMS_P1;PMS_P2;Temp;Humidity;BMP_temperature;BMP_pressure;BME280_temperature;BME280_humidity;BME280_pressure;Samples;Min_cycle;Max_cycle;Signal;HPM_P1;HPM_P2
2024/01/19 00:00:52;;;;;;;1.30;0.55;;;;;;;;;;5070394;28;20048;-71
2024/01/19 00:03:18;;;;;;;5.05;0.65;;;;;;;;;;5070568;28;20068;-70
2024/01/19 00:05:44;;;;;;;2.25;0.65;;;;;;;;;;5069933;28;20079;-71
2024/01/19 00:08:10;;;;;;;2.17;0.80;;;;;;;;;;5070374;28;20051;-71
2024/01/19 00:10:36;;;;;;;2.25;0.80;;;;;;;;;;5070529;28;20036;-70
2024/01/19 00:13:02;;;;;;;7.03;2.22;;;;;;;;;;5069813;28;20037;-71
2024/01/19 00:15:28;;;;;;;7.28;1.60;;;;;;;;;;5069766;28;20041;-71
2024/01/19 00:17:54;;;;;;;6.80;1.40;;;;;;;;;;5070254;28;20097;-72
2024/01/19 00:20:20;;;;;;;3.25;0.77;;;;;;;;;;5053470;28;20040;-72
2024/01/19 00:22:46;;;;;;;3.58;0.65;;;19.10;6.90;;;;;;5070245;28;20094;-72
2024/01/19 00:25:11;;;;;;;3.10;1.00;;;19.30;8.50;;;;;;5053092;28;20044;-69
2024/01/19 00:27:37;;;;;;;5.07;1.42;;;;;;;;;;5070202;28;20037;-69
2024/01/19 00:30:04;;;;;;;2.45;0.77;;;;;;;;;;5070217;28;20128;-70
2024/01/19 00:32:30;;;;;;;6.15;1.67;;;;;;;;;;5070866;28;20041;-69
2024/01/19 00:34:56;;;;;;;8.02;1.80;;;;;;;;;;5070570;28;20040;-70
2024/01/19 00:37:22;;;;;;;7.53;1.25;;;;;;;;;;5069464;28;20040;-69
2024/01/19 00:39:47;;;;;;;7.85;1.23;;;;;;;;;;5070044;28;20121;-70
2024/01/19 00:42:13;;;;;;;5.82;0.98;;;19.10;19.00;;;;;;5053837;28;20051;-67
2024/01/19 00:44:39;;;;;;;8.88;1.40;;;;;;;;;;5070085;28;20040;-69
2024/01/19 00:47:05;;;;;;;2.90;0.90;;;19.20;20.50;;;;;;5069368;28;20041;-69
2024/01/19 00:49:30;;;;;;;2.58;0.70;;;;;;;;;;5069797;28;20051;-69
2024/01/19 00:51:56;;;;;;;4.20;0.90;;;18.80;19.10;;;;;;5053371;28;20416;-69
2024/01/19 00:54:22;;;;;;;5.72;1.20;;;19.00;21.60;;;;;;5070401;28;20039;-69
2024/01/19 00:56:47;;;;;;;7.72;1.25;;;18.80;22.20;;;;;;5069512;28;20041;-69
2024/01/19 00:59:13;;;;;;;4.60;1.00;;;;;;;;;;5053245;28;20072;-69
2024/01/19 01:01:39;;;;;;;6.15;1.05;;;;;;;;;;5069912;28;20041;-69
2024/01/19 01:04:05;;;;;;;5.70;0.95;;;;;;;;;;5069844;28;20102;-69
2024/01/19 01:06:31;;;;;;;5.43;0.65;;;;;;;;;;5053034;28;20045;-69
2024/01/19 01:08:57;;;;;;;10.00;0.93;;;18.70;19.40;;;;;;5069998;28;20047;-69
2024/01/19 01:11:22;;;;;;;3.13;0.82;;;18.70;21.80;;;;;;5069977;28;20119;-69
2024/01/19 01:13:48;;;;;;;4.28;0.98;;;18.60;21.70;;;;;;5053579;28;20496;-69
2024/01/19 01:16:14;;;;;;;3.42;0.98;;;;;;;;;;5069277;28;20040;-69
2024/01/19 01:18:40;;;;;;;4.10;1.30;;;;;;;;;;5069644;28;20169;-69
2024/01/19 01:21:07;;;;;;;7.00;0.98;;;18.50;21.00;;;;;;5070183;28;20408;-69
2024/01/19 01:23:33;;;;;;;4.28;1.00;;;;;;;;;;5054155;28;20036;-70
2024/01/19 01:25:59;;;;;;;3.95;1.00;;;18.70;20.20;;;;;;5073069;28;20036;-69
2024/01/19 01:28:25;;;;;;;5.93;1.08;;;;;;;;;;5074026;28;20498;-69
2024/01/19 01:30:51;;;;;;;8.40;1.42;;;;;;;;;;5073318;28;20115;-69
2024/01/19 01:33:16;;;;;;;3.95;0.88;;;18.70;18.00;;;;;;5073465;28;20127;-69
2024/01/19 01:35:42;;;;;;;3.95;0.90;;;;;;;;;;5072976;28;20627;-70
2024/01/19 01:38:09;;;;;;;4.88;1.25;;;;;;;;;;5073155;28;20045;-70
2024/01/19 01:40:34;;;;;;;5.88;1.05;;;;;;;;;;5056433;28;20040;-69
2024/01/19 01:43:02;;;;;;;7.63;1.10;;;18.70;12.40;;;;;;5073395;28;20098;-70
2024/01/19 01:45:28;;;;;;;4.28;1.23;;;18.60;14.60;;;;;;5055803;28;20095;-69
2024/01/19 01:47:54;;;;;;;5.68;1.00;;;18.50;14.00;;;;;;5074407;28;20044;-69
2024/01/19 01:50:20;;;;;;;9.70;1.10;;;18.80;13.10;;;;;;5056480;28;20086;-69
2024/01/19 01:52:46;;;;;;;1.80;0.75;;;18.40;11.70;;;;;;5056692;28;20044;-69
2024/01/19 01:55:13;;;;;;;4.35;0.93;;;18.70;10.90;;;;;;5072475;28;20067;-69
2024/01/19 01:57:41;;;;;;;2.28;0.70;;;18.60;9.80;;;;;;5073087;28;20098;-70
2024/01/19 02:00:10;;;;;;;2.15;0.80;;;18.60;8.80;;;;;;5056147;28;20488;-69
2024/01/19 02:02:37;;;;;;;5.03;0.80;;;18.60;4.10;;;;;;5072991;28;20045;-70
2024/01/19 02:05:03;;;;;;;6.28;1.13;;;;;;;;;;5072303;28;20048;-69
2024/01/19 02:07:29;;;;;;;3.35;0.68;;;18.50;3.50;;;;;;5072710;28;20048;-70
2024/01/19 02:09:55;;;;;;;4.10;1.08;;;;;;;;;;5056468;28;20045;-69
2024/01/19 02:12:21;;;;;;;6.72;0.93;;;18.60;1.00;;;;;;5072923;28;20036;-69
2024/01/19 02:14:48;;;;;;;1.85;0.82;;;;;;;;;;5072631;28;20496;-69
2024/01/19 02:17:13;;;;;;;10.57;1.27;;;18.80;1.00;;;;;;5071915;28;20036;-68
2024/01/19 02:19:39;;;;;;;2.13;0.75;;;;;;;;;;5072441;28;20043;-69
2024/01/19 02:22:05;;;;;;;2.30;0.80;;;;;;;;;;5072164;28;20500;-69
2024/01/19 02:24:35;;;;;;;6.68;1.25;;;19.00;1.00;;;;;;5072632;28;20080;-70
2024/01/19 02:27:02;;;;;;;4.88;1.40;;;18.90;1.00;;;;;;5071700;28;20036;-69
2024/01/19 02:29:28;;;;;;;10.60;1.60;;;;;;;;;;5072540;28;20036;-69
2024/01/19 02:31:54;;;;;;;10.88;1.55;;;18.80;1.00;;;;;;5072282;28;20044;-70
2024/01/19 02:34:19;;;;;;;5.47;1.27;;;19.00;3.40;;;;;;5072704;28;20096;-69
2024/01/19 02:36:45;;;;;;;9.05;2.15;;;;;;;;;;5054414;28;20036;-68
2024/01/19 02:39:11;;;;;;;5.47;0.98;;;;;;;;;;5055676;28;20044;-69
2024/01/19 02:41:40;;;;;;;8.80;1.25;;;;;;;;;;5055463;28;20566;-69
2024/01/19 02:44:06;;;;;;;3.33;1.00;;;;;;;;;;5073406;28;20502;-69
2024/01/19 02:46:32;;;;;;;3.83;1.20;;;;;;;;;;5071554;28;20072;-69
2024/01/19 02:48:58;;;;;;;5.93;1.92;;;;;;;;;;5071965;28;20127;-70
2024/01/19 02:51:24;;;;;;;5.28;1.58;;;18.90;12.30;;;;;;5055282;28;20040;-69
2024/01/19 02:53:50;;;;;;;10.50;3.58;;;;;;;;;;5071969;28;20040;-70
2024/01/19 02:56:16;;;;;;;7.65;1.30;;;;;;;;;;5071454;28;20089;-70
2024/01/19 02:58:42;;;;;;;11.68;1.13;;;;;;;;;;5071726;28;20044;-70
2024/01/19 03:01:09;;;;;;;4.63;1.42;;;18.80;18.70;;;;;;5072217;28;20543;-70
2024/01/19 03:03:34;;;;;;;5.60;1.00;;;;;;;;;;5072088;28;20043;-69
2024/01/19 03:06:00;;;;;;;7.70;1.30;;;;;;;;;;5070912;28;20036;-69
2024/01/19 03:08:26;;;;;;;4.72;1.23;;;;;;;;;;5071833;28;20036;-70
2024/01/19 03:10:55;;;;;;;5.85;1.15;;;;;;;;;;5071795;28;20051;-69
2024/01/19 03:13:21;;;;;;;12.10;1.33;;;;;;;;;;5071763;28;20041;-69
2024/01/19 03:15:47;;;;;;;5.85;1.15;;;;;;;;;;5070946;28;20537;-69
2024/01/19 03:18:13;;;;;;;2.75;0.80;;;;;;;;;;5071352;28;20052;-69
2024/01/19 03:20:39;;;;;;;3.78;0.80;;;;;;;;;;5071630;28;20054;-69
2024/01/19 03:23:05;;;;;;;6.70;1.25;;;18.60;26.10;;;;;;5071393;28;20056;-70
2024/01/19 03:25:31;;;;;;;5.68;1.38;;;;;;;;;;5070698;28;20051;-70
2024/01/19 03:27:57;;;;;;;5.70;1.15;;;;;;;;;;5071584;28;20044;-70
2024/01/19 03:30:23;;;;;;;7.85;1.63;;;;;;;;;;5071386;28;20139;-70
2024/01/19 03:32:49;;;;;;;5.05;1.30;;;18.90;26.30;;;;;;5071142;28;20683;-69
2024/01/19 03:35:17;;;;;;;7.72;1.17;;;18.40;26.00;;;;;;5070786;28;20045;-69
2024/01/19 03:37:43;;;;;;;8.18;1.10;;;;;;;;;;5070976;28;20048;-69
2024/01/19 03:40:09;;;;;;;3.08;1.00;;;18.40;27.00;;;;;;5053996;28;20044;-69
2024/01/19 03:42:36;;;;;;;6.35;1.98;;;;;;;;;;5054312;28;20121;-69
2024/01/19 03:45:02;;;;;;;8.32;1.75;;;;;;;;;;5070327;28;20044;-68
2024/01/19 03:47:28;;;;;;;9.98;2.03;;;18.80;27.30;;;;;;5069862;28;20036;-69
2024/01/19 03:49:54;;;;;;;4.38;0.98;;;;;;;;;;5070721;28;20377;-69
2024/01/19 03:52:19;;;;;;;8.07;1.88;;;;;;;;;;5054092;28;20041;-69
2024/01/19 03:54:46;;;;;;;4.70;1.15;;;;;;;;;;5070675;28;20480;-69
2024/01/19 03:57:12;;;;;;;7.55;0.95;;;;;;;;;;5053333;28;20040;-69
2024/01/19 03:59:37;;;;;;;13.25;2.60;;;;;;;;;;5070752;28;20389;-69
2024/01/19 04:02:05;;;;;;;7.97;1.02;;;;;;;;;;5053967;28;20094;-69
2024/01/19 04:04:32;;;;;;;4.50;0.93;;;;;;;;;;5070744;28;20049;-69
2024/01/19 04:06:58;;;;;;;10.82;1.23;;;;;;;;;;5069840;28;20389;-69
2024/01/19 04:09:24;;;;;;;8.95;1.23;;;;;;;;;;5053834;28;20147;-69
2024/01/19 04:11:50;;;;;;;9.85;1.38;;;;;;;;;;5053864;28;20040;-69
2024/01/19 04:14:16;;;;;;;7.72;1.65;;;;;;;;;;5054034;28;20082;-69
2024/01/19 04:16:42;;;;;;;4.57;1.33;;;;;;;;;;5069891;28;20048;-69
2024/01/19 04:19:08;;;;;;;6.28;1.20;;;;;;;;;;5070640;28;20068;-69
2024/01/19 04:21:34;;;;;;;7.57;1.08;;;;;;;;;;5070413;28;20496;-70
2024/01/19 04:24:00;;;;;;;6.50;1.35;;;;;;;;;;5070368;28;20040;-69
2024/01/19 04:26:29;;;;;;;10.07;1.30;;;;;;;;;;5069891;28;20044;-69
2024/01/19 04:28:55;;;;;;;8.93;1.45;;;;;;;;;;5070391;28;20036;-70
2024/01/19 04:31:21;;;;;;;7.80;2.20;;;;;;;;;;5070304;28;20119;-69
2024/01/19 04:33:47;;;;;;;6.18;0.95;;;;;;;;;;5053625;28;20504;-69
2024/01/19 04:36:13;;;;;;;8.30;1.27;;;;;;;;;;5053174;28;20133;-67
2024/01/19 04:38:39;;;;;;;4.70;1.10;;;;;;;;;;5070464;28;20157;-69
2024/01/19 04:41:05;;;;;;;4.32;1.63;;;;;;;;;;5070494;28;20036;-69
2024/01/19 04:43:31;;;;;;;4.05;1.35;;;18.10;8.10;;;;;;5070406;28;20428;-69
2024/01/19 04:45:57;;;;;;;6.22;1.35;;;;;;;;;;5052887;28;20044;-70
2024/01/19 04:48:23;;;;;;;7.93;1.48;;;;;;;;;;5070088;28;20032;-69
2024/01/19 04:50:49;;;;;;;7.80;1.40;;;;;;;;;;5070098;28;20038;-69
2024/01/19 04:53:15;;;;;;;8.18;1.40;;;;;;;;;;5053202;28;20047;-70
2024/01/19 04:55:41;;;;;;;10.90;1.23;;;;;;;;;;5069587;28;20094;-69
2024/01/19 04:58:07;;;;;;;11.70;2.25;;;;;;;;;;5070606;28;20040;-69
2024/01/19 05:00:33;;;;;;;10.93;1.30;;;;;;;;;;5074151;28;20488;-69
2024/01/19 05:03:01;;;;;;;3.10;1.40;;;;;;;;;;5074152;28;20072;-69
2024/01/19 05:05:27;;;;;;;5.57;1.30;;;;;;;;;;5072915;28;20404;-69
2024/01/19 05:07:53;;;;;;;7.43;1.92;;;;;;;;;;5057085;28;20036;-70
2024/01/19 05:10:19;;;;;;;13.65;2.30;;;;;;;;;;5074182;28;20033;-69
2024/01/19 05:12:45;;;;;;;5.30;1.30;;;;;;;;;;5073957;28;20052;-68
2024/01/19 05:15:11;;;;;;;9.38;1.77;;;;;;;;;;5056550;28;20500;-70
2024/01/19 05:17:37;;;;;;;11.30;1.77;;;;;;;;;;5073928;28;20041;-69
2024/01/19 05:20:03;;;;;;;8.68;1.35;;;;;;;;;;5073836;28;20075;-69
2024/01/19 05:22:29;;;;;;;8.60;1.58;;;;;;;;;;5057068;28;20511;-69
2024/01/19 05:24:56;;;;;;;9.90;1.50;;;;;;;;;;5073498;28;20036;-69
2024/01/19 05:27:21;;;;;;;7.72;1.40;;;;;;;;;;5072812;28;20045;-69
2024/01/19 05:29:47;;;;;;;9.05;1.73;;;;;;;;;;5074890;28;20062;-69
2024/01/19 05:32:13;;;;;;;7.40;1.58;;;;;;;;;;5073375;28;20037;-69
2024/01/19 05:34:39;;;;;;;12.02;1.80;;;;;;;;;;5073671;28;20404;-69
2024/01/19 05:37:05;;;;;;;8.32;1.48;;;;;;;;;;5074004;28;20117;-69
2024/01/19 05:39:32;;;;;;;9.57;1.80;;;;;;;;;;5073627;28;20048;-70
2024/01/19 05:41:57;;;;;;;14.25;1.73;;;;;;;;;;5073565;28;20408;-72
2024/01/19 05:44:23;;;;;;;4.57;1.33;;;;;;;;;;5073355;28;20036;-72
2024/01/19 05:46:49;;;;;;;14.15;4.18;;;;;;;;;;5072918;28;20072;-72
2024/01/19 05:49:15;;;;;;;9.38;1.48;;;;;;;;;;5072885;28;20040;-72
2024/01/19 05:51:43;;;;;;;9.07;1.60;;;18.50;4.00;;;;;;5073106;28;20451;-72
2024/01/19 05:54:09;;;;;;;7.35;1.30;;;;;;;;;;5056475;28;20559;-71
2024/01/19 05:56:35;;;;;;;8.00;1.83;;;;;;;;;;5072392;28;20123;-71
2024/01/19 05:59:00;;;;;;;10.80;1.83;;;19.90;4.80;;;;;;5073113;28;20047;-71
2024/01/19 06:01:26;;;;;;;9.18;1.52;;;;;;;;;;5073194;28;20032;-72
2024/01/19 06:03:52;;;;;;;5.53;1.20;;;;;;;;;;5072747;28;20044;-72
2024/01/19 06:06:19;;;;;;;12.75;1.90;;;;;;;;;;5072890;28;20046;-72
2024/01/19 06:08:45;;;;;;;11.05;1.77;;;;;;;;;;5057074;28;20037;-69
2024/01/19 06:11:11;;;;;;;9.43;1.92;;;;;;;;;;5070336;28;20492;-70
2024/01/19 06:13:40;;;;;;;7.30;1.38;;;;;;;;;;5072490;28;20036;-70
2024/01/19 06:16:06;;;;;;;7.78;1.52;;;;;;;;;;5071979;28;20384;-69
2024/01/19 06:18:34;;;;;;;5.90;1.25;;;;;;;;;;5059967;28;20106;-69
2024/01/19 06:21:00;;;;;;;8.02;1.30;;;;;;;;;;5050952;28;20048;-67
2024/01/19 06:23:26;;;;;;;7.18;1.92;;;;;;;;;;5050971;28;20049;-69
2024/01/19 06:25:52;;;;;;;10.00;1.75;;;;;;;;;;5051595;28;20056;-69
2024/01/19 06:28:18;;;;;;;3.90;1.00;;;;;;;;;;5053433;28;20408;-69
2024/01/19 06:30:50;;;;;;;7.05;1.15;;;;;;;;;;5051810;28;20037;-67
2024/01/19 06:33:16;;;;;;;5.40;1.50;;;;;;;;;;5052169;28;20130;-69
2024/01/19 06:35:42;;;;;;;9.40;2.60;;;;;;;;;;5051765;28;20041;-69
2024/01/19 06:38:08;;;;;;;10.73;1.40;;;;;;;;;;5052170;28;20040;-70
2024/01/19 06:40:34;;;;;;;5.28;2.30;;;;;;;;;;5052124;28;20081;-71
2024/01/19 06:43:00;;;;;;;6.28;1.73;;;;;;;;;;5052335;28;20084;-69
2024/01/19 06:45:26;;;;;;;8.27;1.52;;;;;;;;;;5035336;28;20134;-69
2024/01/19 06:47:52;;;;;;;11.40;1.45;;;;;;;;;;5054137;28;20045;-69
2024/01/19 06:50:18;;;;;;;5.75;2.17;;;;;;;;;;5037436;28;20485;-70
2024/01/19 06:52:44;;;;;;;9.55;2.13;;;19.80;1.00;;;;;;5053633;28;20049;-69
2024/01/19 06:55:10;;;;;;;19.40;2.40;;;;;;;;;;5064839;28;20042;-69
2024/01/19 06:57:36;;;;;;;8.38;2.85;;;;;;;;;;5071051;28;20087;-69
2024/01/19 07:00:02;;;;;;;10.55;1.67;;;;;;;;;;5071198;28;20076;-70
2024/01/19 07:02:28;;;;;;;6.13;1.48;;;;;;;;;;5054810;28;20408;-69
2024/01/19 07:04:56;;;;;;;11.65;1.70;;;;;;;;;;5071197;28;20086;-69
2024/01/19 07:07:22;;;;;;;6.13;1.70;;;;;;;;;;5051639;28;20036;-72
2024/01/19 07:09:48;;;;;;;12.35;2.33;;;;;;;;;;5061106;28;20106;-71
2024/01/19 07:12:16;;;;;;;7.72;1.60;;;;;;;;;;5065412;28;20064;-71
2024/01/19 07:14:42;;;;;;;4.40;1.65;;;;;;;;;;5037264;28;20044;-71
2024/01/19 07:17:08;;;;;;;14.45;2.83;;;;;;;;;;5061434;28;20055;-71
2024/01/19 07:19:35;;;;;;;7.93;1.48;;;;;;;;;;5062192;28;20044;-71
2024/01/19 07:22:01;;;;;;;13.27;2.03;;;;;;;;;;5062514;28;20143;-71
2024/01/19 07:24:32;;;;;;;5.57;1.77;;;;;;;;;;5058834;28;20067;-70
2024/01/19 07:26:58;;;;;;;9.52;2.30;;;;;;;;;;5065165;28;20116;-72
2024/01/19 07:29:25;;;;;;;9.10;1.38;;;;;;;;;;5052742;28;20140;-72
2024/01/19 07:31:51;;;;;;;12.35;1.67;;;;;;;;;;5048406;28;20124;-71
2024/01/19 07:34:17;;;;;;;9.40;1.70;;;;;;;;;;5058881;28;20132;-72
2024/01/19 07:36:44;;;;;;;5.68;1.73;;;;;;;;;;5054163;28;20052;-71
2024/01/19 07:39:10;;;;;;;12.00;2.08;;;;;;;;;;5049982;28;20086;-72
2024/01/19 07:41:36;;;;;;;13.73;1.70;;;;;;;;;;5067882;28;20048;-70
2024/01/19 07:44:02;;;;;;;11.35;2.30;;;;;;;;;;5057039;28;20118;-70
2024/01/19 07:46:28;;;;;;;10.60;1.60;;;;;;;;;;5034567;28;20123;-69
2024/01/19 07:48:54;;;;;;;10.10;1.70;;;;;;;;;;5050033;28;20116;-69
2024/01/19 07:51:21;;;;;;;11.82;1.60;;;20.40;1.00;;;;;;5068231;28;20634;-70
2024/01/19 07:53:47;;;;;;;4.30;1.80;;;;;;;;;;5052823;28;20111;-71
2024/01/19 07:56:13;;;;;;;7.32;1.95;;;;;;;;;;5057264;28;20041;-70
2024/01/19 07:58:43;;;;;;;10.73;1.73;;;20.40;1.00;;;;;;5050985;28;20040;-69
2024/01/19 08:01:09;;;;;;;11.18;2.42;;;;;;;;;;5064529;28;20524;-70
2024/01/19 08:03:35;;;;;;;11.75;1.88;;;;;;;;;;5034440;28;20451;-70
2024/01/19 08:06:01;;;;;;;10.68;2.13;;;20.40;1.00;;;;;;5053870;28;20037;-70
2024/01/19 08:08:27;;;;;;;12.45;2.60;;;;;;;;;;5058499;28;20068;-70
2024/01/19 08:10:53;;;;;;;7.50;1.88;;;;;;;;;;5058161;28;20037;-68
2024/01/19 08:13:19;;;;;;;17.20;1.88;;;;;;;;;;5061378;28;20143;-71
2024/01/19 08:15:45;;;;;;;8.27;1.83;;;;;;;;;;5059425;28;20459;-69
2024/01/19 08:18:11;;;;;;;5.57;1.67;;;;;;;;;;5053886;28;20040;-70
2024/01/19 08:20:37;;;;;;;10.57;2.00;;;;;;;;;;5043010;28;20048;-71
2024/01/19 08:23:03;;;;;;;8.35;1.60;;;;;;;;;;5067368;28;20115;-69
2024/01/19 08:25:29;;;;;;;7.68;2.85;;;;;;;;;;5053346;28;20049;-70
2024/01/19 08:27:55;;;;;;;8.32;1.92;;;;;;;;;;5049486;28;20049;-70
2024/01/19 08:30:21;;;;;;;12.52;2.35;;;;;;;;;;5050162;28;20209;-69
2024/01/19 08:32:47;;;;;;;18.23;2.67;;;;;;;;;;5050082;28;20090;-71
2024/01/19 08:35:13;;;;;;;16.70;3.35;;;;;;;;;;5049890;28;20048;-71
2024/01/19 08:37:40;;;;;;;12.70;1.95;;;20.30;1.00;;;;;;5050104;28;20048;-71
2024/01/19 08:40:10;;;;;;;10.40;1.73;;;;;;;;;;5050229;28;20091;-70
2024/01/19 08:42:36;;;;;;;7.30;2.67;;;;;;;;;;5050502;28;20044;-73
2024/01/19 08:45:02;;;;;;;8.75;1.85;;;;;;;;;;5032968;28;20087;-71
2024/01/19 08:47:29;;;;;;;9.55;2.75;;;;;;;;;;5050041;28;20090;-71
2024/01/19 08:49:55;;;;;;;8.80;2.47;;;;;;;;;;5050458;28;20508;-68
2024/01/19 08:52:21;;;;;;;9.00;3.08;;;20.50;1.00;;;;;;5050023;28;20080;-71
2024/01/19 08:54:47;;;;;;;6.53;1.92;;;;;;;;;;5050203;28;20071;-71
2024/01/19 08:57:13;;;;;;;13.90;2.08;;;;;;;;;;5049772;28;20580;-72
2024/01/19 08:59:39;;;;;;;7.45;2.28;;;;;;;;;;5051516;28;20412;-71
2024/01/19 09:02:05;;;;;;;15.27;2.50;;;;;;;;;;5049929;28;20127;-71
2024/01/19 09:04:34;;;;;;;13.77;1.92;;;;;;;;;;5049946;28;20041;-71
2024/01/19 09:07:00;;;;;;;6.10;2.70;;;;;;;;;;5049807;28;20041;-71
2024/01/19 09:09:26;;;;;;;10.00;2.22;;;;;;;;;;5050085;28;20041;-71
2024/01/19 09:11:53;;;;;;;8.35;1.48;;;;;;;;;;5049943;28;20037;-71
2024/01/19 09:14:20;;;;;;;9.90;1.75;;;;;;;;;;5049997;28;20045;-71
2024/01/19 09:16:46;;;;;;;6.60;1.70;;;;;;;;;;5033076;28;20041;-71
2024/01/19 09:19:12;;;;;;;11.88;2.13;;;;;;;;;;5049972;28;20518;-71
2024/01/19 09:21:45;;;;;;;8.07;2.08;;;;;;;;;;5050062;28;20049;-71
2024/01/19 09:24:14;;;;;;;13.85;2.97;;;;;;;;;;5050098;28;20080;-70
2024/01/19 09:26:40;;;;;;;4.28;1.58;;;20.70;1.00;;;;;;5032482;28;20492;-71
2024/01/19 09:29:08;;;;;;;11.95;2.80;;;;;;;;;;5049730;28;20076;-72
2024/01/19 09:31:43;;;;;;;10.55;2.00;;;21.10;1.00;;;;;;5049710;28;20515;-71
2024/01/19 09:34:10;;;;;;;14.75;1.55;;;;;;;;;;5049875;28;20079;-70
2024/01/19 09:36:36;;;;;;;9.10;2.15;;;;;;;;;;5049402;28;20404;-71
2024/01/19 09:39:02;;;;;;;9.82;1.95;;;;;;;;;;5049584;28;20056;-71
2024/01/19 09:41:36;;;;;;;8.88;1.85;;;;;;;;;;5049562;28;20045;-72
2024/01/19 09:44:06;;;;;;;7.10;2.05;;;;;;;;;;5050779;28;20044;-71
2024/01/19 09:46:35;;;;;;;8.63;1.77;;;;;;;;;;5053179;28;20049;-69
2024/01/19 09:49:45;;;;;;;7.85;2.13;;;21.60;1.00;;;;;;5053538;28;20404;-72
2024/01/19 09:52:41;;;;;;;10.27;1.67;;;21.40;1.00;;;;;;5036805;28;20604;-70
2024/01/19 09:55:10;;;;;;;14.48;2.28;;;;;;;;;;5052701;28;20037;-71
2024/01/19 09:57:43;;;;;;;4.22;1.23;;;20.10;1.00;;;;;;5053186;28;20408;-71
2024/01/19 10:00:09;;;;;;;18.20;2.08;;;;;;;;;;5053131;28;20534;-71
2024/01/19 10:02:35;;;;;;;4.88;1.50;;;19.80;1.00;;;;;;5053299;28;20087;-71
2024/01/19 10:05:01;;;;;;;6.78;1.42;;;;;;;;;;5052846;28;20527;-71
2024/01/19 10:07:28;;;;;;;13.35;1.58;;;;;;;;;;5052651;28;20043;-72
2024/01/19 10:09:54;;;;;;;6.95;1.45;;;;;;;;;;5052933;28;20049;-73
2024/01/19 10:12:22;;;;;;;15.63;2.67;;;19.90;1.00;;;;;;5051292;28;20511;-72
2024/01/19 10:14:48;;;;;;;9.40;2.08;;;;;;;;;;5064751;28;20082;-72
2024/01/19 10:17:16;;;;;;;12.90;2.13;;;20.50;1.00;;;;;;5055225;28;20037;-72
2024/01/19 10:19:42;;;;;;;11.18;2.22;;;;;;;;;;5055824;28;20052;-72
2024/01/19 10:22:28;;;;;;;11.77;2.30;;;;;;;;;;5072554;28;20048;-72
2024/01/19 10:25:04;;;;;;;5.82;1.48;;;19.90;1.00;;;;;;5072708;28;20510;-69
2024/01/19 10:27:46;;;;;;;8.70;1.73;;;20.30;1.00;;;;;;5072380;28;20047;-71
2024/01/19 10:30:13;;;;;;;8.35;2.17;;;;;;;;;;5055672;28;20041;-68
2024/01/19 10:32:39;;;;;;;8.80;1.80;;;;;;;;;;5055104;28;20126;-71
2024/01/19 10:35:07;;;;;;;12.85;2.00;;;;;;;;;;5071283;28;20132;-70
2024/01/19 10:37:33;;;;;;;10.38;1.88;;;;;;;;;;5071821;28;20044;-73
2024/01/19 10:40:13;;;;;;;5.97;1.85;;;;;;;;;;5071893;28;20097;-74
2024/01/19 10:42:40;;;;;;;11.65;2.15;;;20.00;1.00;;;;;;5051073;28;20072;-71
2024/01/19 10:45:15;;;;;;;8.75;2.10;;;;;;;;;;5069361;28;20044;-71
2024/01/19 10:47:53;;;;;;;13.73;1.75;;;20.10;1.00;;;;;;5070487;28;20091;-74
2024/01/19 10:50:19;;;;;;;10.98;1.52;;;;;;;;;;5052680;28;20036;-71
2024/01/19 10:52:51;;;;;;;9.63;2.47;;;20.00;1.00;;;;;;5071258;28;20032;-72
2024/01/19 10:55:18;;;;;;;8.48;1.90;;;;;;;;;;5069899;28;20454;-71
2024/01/19 10:57:47;;;;;;;8.00;2.17;;;;;;;;;;5069822;28;20044;-72
2024/01/19 11:00:20;;;;;;;8.13;2.00;;;;;;;;;;5068750;28;20048;-71
2024/01/19 11:02:56;;;;;;;7.30;1.58;;;;;;;;;;5065394;28;20032;-71
2024/01/19 11:05:23;;;;;;;8.65;1.75;;;;;;;;;;5070875;28;20079;-72
2024/01/19 11:07:50;;;;;;;9.38;1.83;;;;;;;;;;5072390;28;20119;-71
2024/01/19 11:10:16;;;;;;;7.38;1.60;;;;;;;;;;5070961;28;20036;-71
2024/01/19 11:12:49;;;;;;;9.70;2.00;;;20.30;1.00;;;;;;5054473;28;20086;-69
2024/01/19 11:15:24;;;;;;;10.25;2.00;;;20.40;1.00;;;;;;5051787;28;20032;-73
2024/01/19 11:17:50;;;;;;;6.72;1.40;;;;;;;;;;5071140;28;20036;-72
2024/01/19 11:20:16;;;;;;;8.90;1.88;;;;;;;;;;5072183;28;20117;-72
2024/01/19 11:22:43;;;;;;;12.00;1.60;;;;;;;;;;5070797;28;20041;-71
2024/01/19 11:25:12;;;;;;;5.32;1.80;;;;;;;;;;5070960;28;20047;-71
2024/01/19 11:27:46;;;;;;;8.10;1.83;;;20.30;1.00;;;;;;5071285;28;20044;-71
2024/01/19 11:30:11;;;;;;;;;;;;;;;;;;5072525;28;20040;-72
2024/01/19 11:32:37;;;;;;;9.15;1.45;;;;;;;;;;5068174;28;19969;-74
2024/01/19 11:35:04;;;;;;;7.43;1.52;;;;;;;;;;5053874;28;20036;-69
2024/01/19 11:37:59;;;;;;;13.10;2.65;;;20.70;1.00;;;;;;5060899;28;20048;-74
2024/01/19 11:40:25;;;;;;;3.58;1.08;;;;;;;;;;5012188;28;20056;-71
2024/01/19 11:42:51;;;;;;;9.45;2.08;;;;;;;;;;5052205;28;20067;-72
2024/01/19 11:45:42;;;;;;;4.47;1.45;;;20.60;1.00;;;;;;5050267;28;20128;-71
2024/01/19 11:48:08;;;;;;;11.23;2.47;;;;;;;;;;5070034;28;20083;-71
2024/01/19 11:50:47;;;;;;;12.80;1.85;;;20.60;1.00;;;;;;5070788;28;20068;-72
2024/01/19 11:53:14;;;;;;;7.70;1.65;;;20.60;1.00;;;;;;5070769;28;20075;-73
2024/01/19 11:55:41;;;;;;;7.32;1.38;;;20.50;1.00;;;;;;5070224;28;20447;-72
2024/01/19 11:58:29;;;;;;;6.03;1.63;;;;;;;;;;5070332;28;20048;-71
2024/01/19 12:00:59;;;;;;;9.38;2.00;;;20.60;1.00;;;;;;5053923;28;20055;-71
2024/01/19 12:03:25;;;;;;;11.32;1.60;;;;;;;;;;5070950;28;20044;-72
2024/01/19 12:05:55;;;;;;;5.32;1.40;;;20.90;1.00;;;;;;5069635;28;20051;-71
2024/01/19 12:08:21;;;;;;;7.93;2.17;;;;;;;;;;5046783;28;20519;-72
2024/01/19 12:10:46;;;;;;;14.13;2.08;;;20.60;1.00;;;;;;5057870;28;20037;-72
2024/01/19 12:13:12;;;;;;;10.80;1.83;;;;;;;;;;5054508;28;20041;-72
2024/01/19 12:15:43;;;;;;;14.13;1.80;;;;;;;;;;5054973;28;20037;-73
2024/01/19 12:18:10;;;;;;;10.98;1.75;;;;;;;;;;5053874;28;20083;-73
2024/01/19 12:20:36;;;;;;;7.50;1.35;;;;;;;;;;5054834;28;20538;-73
2024/01/19 12:23:02;;;;;;;10.60;2.25;;;;;;;;;;5053010;28;20546;-72
2024/01/19 12:25:28;;;;;;;5.70;1.40;;;;;;;;;;5053936;28;20465;-73
2024/01/19 12:28:04;;;;;;;6.68;1.35;;;;;;;;;;5051373;28;20036;-72
2024/01/19 12:30:34;;;;;;;5.15;1.17;;;;;;;;;;5067043;28;20028;-72
2024/01/19 12:33:13;;;;;;;3.13;1.42;;;;;;;;;;5046731;22;20357;-74
2024/01/19 12:35:40;;;;;;;5.82;1.58;;;;;;;;;;5004084;28;20056;-74
2024/01/19 12:38:06;;;;;;;14.35;1.70;;;20.70;1.00;;;;;;5022406;28;20504;-74
2024/01/19 12:40:34;;;;;;;9.02;1.40;;;20.70;1.00;;;;;;5001746;28;20120;-74
2024/01/19 12:43:04;;;;;;;7.70;1.42;;;20.90;1.00;;;;;;5015969;28;20037;-74
2024/01/19 12:45:30;;;;;;;3.25;1.17;;;;;;;;;;5029191;28;20038;-74
2024/01/19 12:47:59;;;;;;;7.03;0.98;;;;;;;;;;5029357;28;20095;-72
2024/01/19 12:50:25;;;;;;;10.20;1.70;;;;;;;;;;5012523;28;20095;-74
2024/01/19 12:52:51;;;;;;;6.40;1.02;;;;;;;;;;5028942;28;20033;-74
2024/01/19 12:55:26;;;;;;;6.95;1.95;;;;;;;;;;5028459;28;20049;-74
2024/01/19 12:57:52;;;;;;;8.98;1.63;;;;;;;;;;5013987;28;20041;-74
2024/01/19 13:00:18;;;;;;;10.27;1.60;;;;;;;;;;5030493;28;20343;-74
2024/01/19 13:02:45;;;;;;;10.80;1.80;;;;;;;;;;5013770;28;20041;-74
2024/01/19 13:05:27;;;;;;;4.75;1.45;;;20.70;1.00;;;;;;5029695;28;20041;-74
2024/01/19 13:07:59;;;;;;;6.07;1.47;;;20.90;1.00;;;;;;5030118;28;20049;-74
2024/01/19 13:10:25;;;;;;;4.97;1.77;;;;;;;;;;5013839;28;20037;-74
2024/01/19 13:13:03;;;;;;;6.85;1.23;;;;;;;;;;5030129;28;20053;-74
2024/01/19 13:15:31;;;;;;;6.07;1.15;;;20.90;1.00;;;;;;5029629;28;20494;-74
2024/01/19 13:18:10;;;;;;;7.32;1.30;;;20.70;1.00;;;;;;5013832;28;20099;-74
2024/01/19 13:20:36;;;;;;;10.18;1.60;;;;;;;;;;5032888;28;20038;-74
2024/01/19 13:23:02;;;;;;;6.65;1.77;;;;;;;;;;5034080;28;20203;-74
2024/01/19 13:25:28;;;;;;;5.93;1.15;;;;;;;;;;5033336;28;20536;-74
2024/01/19 13:27:57;;;;;;;4.10;1.25;;;;;;;;;;5033830;28;20064;-74
2024/01/19 13:30:25;;;;;;;4.97;1.08;;;;;;;;;;5034174;28;20049;-74
2024/01/19 13:32:51;;;;;;;3.75;1.67;;;;;;;;;;5033759;28;20048;-74
2024/01/19 13:35:17;;;;;;;4.32;1.05;;;;;;;;;;5016627;28;20128;-74
2024/01/19 13:37:43;;;;;;;5.97;1.48;;;;;;;;;;5017001;28;20045;-74
2024/01/19 13:40:11;;;;;;;8.38;1.42;;;20.70;1.00;;;;;;5033748;28;20244;-74
2024/01/19 13:42:37;;;;;;;5.53;1.77;;;;;;;;;;5033508;28;20128;-74
2024/01/19 13:45:12;;;;;;;7.18;1.20;;;20.60;1.00;;;;;;5016705;28;20068;-73
2024/01/19 13:47:38;;;;;;;6.15;1.45;;;;;;;;;;5017589;28;20048;-74
2024/01/19 13:50:05;;;;;;;6.97;1.83;;;20.80;1.00;;;;;;5034172;28;20128;-75
2024/01/19 13:52:31;;;;;;;7.82;1.60;;;;;;;;;;5017185;28;20099;-74
2024/01/19 13:54:57;;;;;;;7.95;1.98;;;;;;;;;;5017479;28;20497;-74
2024/01/19 13:57:23;;;;;;;12.38;2.30;;;;;;;;;;5033023;28;20405;-74
2024/01/19 13:59:50;;;;;;;12.73;2.22;;;;;;;;;;5033563;28;20038;-74
2024/01/19 14:02:19;;;;;;;9.48;2.00;;;;;;;;;;5033548;28;20052;-74
2024/01/19 14:04:45;;;;;;;5.45;1.73;;;20.50;1.00;;;;;;5033194;28;20043;-74
2024/01/19 14:07:17;;;;;;;7.15;2.40;;;;;;;;;;5016063;28;20041;-74
2024/01/19 14:09:43;;;;;;;8.57;2.20;;;;;;;;;;5016844;28;20048;-74
2024/01/19 14:12:09;;;;;;;5.70;1.90;;;;;;;;;;5032932;28;20124;-74